createdAt,value
2022-09-21T00:02:19.368Z,6.52
2022-09-21T00:04:50.483Z,6.40
2022-09-21T00:07:19.867Z,6.48
2022-09-21T00:09:49.261Z,6.50
2022-09-21T00:12:19.701Z,6.50
2022-09-21T00:14:51.645Z,6.59
2022-09-21T00:17:21.042Z,6.65
2022-09-21T00:19:50.397Z,6.60
2022-09-21T00:22:19.933Z,6.54
2022-09-21T00:24:49.363Z,6.44
2022-09-21T00:27:18.730Z,6.47
2022-09-21T00:29:51.161Z,6.38
2022-09-21T00:32:20.526Z,6.35
2022-09-21T00:34:50.230Z,6.37
2022-09-21T00:37:19.725Z,6.36
2022-09-21T00:39:49.418Z,6.33
2022-09-21T00:42:21.806Z,6.23
2022-09-21T00:44:54.136Z,6.20
2022-09-21T00:47:26.346Z,6.20
2022-09-21T00:49:57.869Z,6.21
2022-09-21T00:52:28.262Z,6.19
2022-09-21T00:55:00.709Z,6.12
2022-09-21T00:57:33.179Z,6.17
2022-09-21T01:00:08.390Z,6.19
2022-09-21T01:02:38.109Z,6.21
2022-09-21T01:05:09.253Z,6.48
2022-09-21T01:07:40.717Z,6.47
2022-09-21T01:10:14.017Z,6.70
2022-09-21T01:12:54.076Z,6.64
2022-09-21T01:15:34.617Z,6.34
2022-09-21T01:18:12.289Z,6.19
2022-09-21T01:21:11.716Z,6.11
2022-09-21T01:24:01.541Z,5.99
2022-09-21T01:26:43.606Z,5.77
2022-09-21T01:29:23.658Z,5.57
2022-09-21T01:31:56.557Z,5.49
2022-09-21T01:34:30.333Z,5.54
2022-09-21T01:37:01.929Z,5.61
2022-09-21T01:39:33.289Z,5.66
2022-09-21T01:42:03.184Z,5.64
2022-09-21T01:44:37.401Z,5.50
2022-09-21T01:47:10.372Z,5.38
2022-09-21T01:49:42.552Z,5.36
2022-09-21T01:52:16.914Z,5.34
2022-09-21T01:54:48.775Z,5.32
2022-09-21T01:57:24.009Z,5.34
2022-09-21T01:59:57.469Z,5.41
2022-09-21T02:02:32.029Z,5.52
2022-09-21T02:05:02.500Z,5.51
2022-09-21T02:07:31.933Z,5.45
2022-09-21T02:10:01.706Z,5.46
2022-09-21T02:12:32.199Z,5.57
2022-09-21T02:15:04.984Z,5.60
2022-09-21T02:17:39.308Z,5.51
2022-09-21T02:20:19.443Z,5.53
2022-09-21T02:23:00.200Z,5.56
2022-09-21T02:25:37.516Z,5.47
2022-09-21T02:28:10.794Z,5.46
2022-09-21T02:30:44.202Z,5.47
2022-09-21T02:33:15.855Z,5.52
2022-09-21T02:35:48.344Z,5.53
2022-09-21T02:38:22.114Z,5.58
2022-09-21T02:40:56.191Z,5.62
2022-09-21T02:43:28.168Z,5.69
2022-09-21T02:46:04.311Z,5.68
2022-09-21T02:48:37.500Z,5.63
2022-09-21T02:51:09.991Z,7.15
2022-09-21T02:53:41.656Z,7.23
2022-09-21T02:56:11.728Z,7.29
2022-09-21T02:58:43.136Z,7.21
2022-09-21T03:01:16.439Z,7.01
2022-09-21T03:03:45.925Z,7.27
2022-09-21T03:06:15.345Z,7.49
2022-09-21T03:08:44.736Z,7.42
2022-09-21T03:11:14.326Z,7.15
2022-09-21T03:13:44.622Z,6.85
2022-09-21T03:16:16.669Z,6.54
2022-09-21T03:18:46.102Z,6.48
2022-09-21T03:21:15.583Z,5.94
2022-09-21T03:23:45.002Z,5.45
2022-09-21T03:26:14.401Z,5.74
2022-09-21T03:28:44.029Z,5.89
2022-09-21T03:31:16.141Z,5.76
2022-09-21T03:33:45.605Z,5.35
2022-09-21T03:36:15.373Z,5.08
2022-09-21T03:38:45.417Z,5.17
2022-09-21T03:41:15.308Z,5.46
2022-09-21T03:43:44.694Z,5.53
2022-09-21T03:46:17.188Z,5.80
2022-09-21T03:48:47.576Z,5.94
2022-09-21T03:51:17.202Z,5.95
2022-09-21T03:53:46.589Z,5.80
2022-09-21T03:56:16.135Z,5.42
2022-09-21T03:58:45.575Z,5.19
2022-09-21T04:01:17.589Z,5.48
2022-09-21T04:03:47.101Z,5.70
2022-09-21T04:06:16.532Z,5.65
2022-09-21T04:08:45.908Z,5.16
2022-09-21T04:11:17.188Z,5.25
2022-09-21T04:13:47.018Z,5.37
2022-09-21T04:16:19.136Z,5.21
2022-09-21T04:18:50.267Z,5.30
2022-09-21T04:21:20.129Z,5.13
2022-09-21T04:23:49.788Z,5.34
2022-09-21T04:26:23.473Z,5.49
2022-09-21T04:28:53.070Z,5.72
2022-09-21T04:31:25.459Z,5.44
2022-09-21T04:33:56.878Z,5.13
2022-09-21T04:36:27.332Z,5.52
2022-09-21T04:38:56.708Z,5.42
2022-09-21T04:41:26.062Z,5.48
2022-09-21T04:43:55.601Z,5.30
2022-09-21T04:46:27.608Z,5.41
2022-09-21T04:48:57.144Z,5.53
2022-09-21T04:51:26.513Z,5.31
2022-09-21T04:53:55.966Z,5.64
2022-09-21T04:56:25.332Z,5.43
2022-09-21T04:58:55.013Z,5.34
2022-09-21T05:01:27.850Z,5.28
2022-09-21T05:04:01.681Z,5.29
2022-09-21T05:06:31.490Z,5.14
2022-09-21T05:09:13.540Z,4.64
2022-09-21T05:11:43.291Z,4.49
2022-09-21T05:14:13.451Z,4.99
2022-09-21T05:16:47.668Z,4.95
2022-09-21T05:19:17.062Z,5.13
2022-09-21T05:21:46.736Z,5.34
2022-09-21T05:24:16.306Z,5.58
2022-09-21T05:26:45.705Z,5.51
2022-09-21T05:29:15.745Z,5.45
2022-09-21T05:31:51.610Z,4.98
2022-09-21T05:34:39.489Z,4.79
2022-09-21T05:37:15.216Z,5.04
2022-09-21T05:39:45.259Z,5.33
2022-09-21T05:42:15.407Z,5.45
2022-09-21T05:44:45.818Z,5.30
2022-09-21T05:47:25.909Z,4.80
2022-09-21T05:50:01.851Z,4.58
2022-09-21T05:52:38.640Z,4.54
2022-09-21T05:55:22.385Z,4.49
2022-09-21T05:57:57.237Z,4.52
2022-09-21T06:00:27.582Z,4.53
2022-09-21T06:03:13.293Z,4.76
2022-09-21T06:05:46.851Z,4.63
2022-09-21T06:08:16.274Z,4.57
2022-09-21T06:10:45.750Z,4.51
2022-09-21T06:13:15.150Z,4.61
2022-09-21T06:15:44.551Z,4.83
2022-09-21T06:18:18.143Z,4.89
2022-09-21T06:20:47.832Z,4.96
2022-09-21T06:23:17.421Z,4.93
2022-09-21T06:25:46.822Z,4.99
2022-09-21T06:28:16.408Z,5.10
2022-09-21T06:30:45.902Z,5.22
2022-09-21T06:33:21.136Z,5.29
2022-09-21T06:35:55.309Z,5.34
2022-09-21T06:38:25.290Z,5.38
2022-09-21T06:40:55.469Z,5.50
2022-09-21T06:43:25.129Z,5.80
2022-09-21T06:45:59.051Z,5.99
2022-09-21T06:48:32.488Z,5.92
2022-09-21T06:51:02.049Z,5.93
2022-09-21T06:53:32.785Z,6.21
2022-09-21T06:56:05.839Z,6.59
2022-09-21T06:58:35.700Z,6.54
2022-09-21T07:01:09.273Z,6.59
2022-09-21T07:03:42.590Z,6.61
2022-09-21T07:06:15.649Z,6.88
2022-09-21T07:11:35.355Z,7.76
2022-09-21T07:14:05.482Z,8.02
2022-09-21T07:16:35.028Z,8.11
2022-09-21T07:19:11.306Z,7.82
2022-09-21T07:21:41.076Z,7.74
2022-09-21T07:24:12.403Z,7.55
2022-09-21T07:26:42.209Z,7.53
2022-09-21T07:29:11.775Z,7.55
2022-09-21T07:31:41.584Z,7.64
2022-09-21T07:34:13.629Z,7.67
2022-09-21T07:36:43.070Z,7.76
2022-09-21T07:39:12.820Z,7.87
2022-09-21T07:41:42.249Z,7.89
2022-09-21T07:44:11.910Z,8.00
2022-09-21T07:46:47.304Z,8.12
2022-09-21T07:49:20.225Z,8.26
2022-09-21T07:51:49.661Z,8.36
2022-09-21T07:54:19.085Z,8.47
2022-09-21T07:57:08.495Z,8.56
2022-09-21T07:59:35.309Z,8.71
2022-09-21T08:02:04.968Z,8.84
2022-09-21T08:04:36.978Z,8.89
2022-09-21T08:07:06.562Z,9.00
2022-09-21T08:09:35.950Z,9.12
2022-09-21T08:12:05.562Z,9.22
2022-09-21T08:14:35.820Z,9.35
2022-09-21T08:17:05.532Z,9.47
2022-09-21T08:19:37.717Z,9.59
2022-09-21T08:22:07.231Z,9.71
2022-09-21T08:24:37.685Z,9.81
2022-09-21T08:27:08.561Z,9.95
2022-09-21T08:29:38.454Z,10.08
2022-09-21T08:32:08.260Z,10.21
2022-09-21T08:34:40.284Z,10.35
2022-09-21T08:37:10.006Z,10.43
2022-09-21T08:39:40.423Z,10.59
2022-09-21T08:42:33.195Z,10.74
2022-09-21T08:45:06.445Z,10.86
2022-09-21T08:47:43.581Z,11.01
2022-09-21T08:50:32.052Z,11.09
2022-09-21T08:53:04.990Z,11.17
2022-09-21T08:55:34.494Z,11.23
2022-09-21T08:58:03.924Z,11.33
2022-09-21T09:00:38.098Z,11.45
2022-09-21T09:03:20.079Z,11.61
2022-09-21T09:05:55.424Z,11.71
2022-09-21T09:08:48.788Z,11.80
2022-09-21T09:11:27.414Z,11.92
2022-09-21T09:14:14.542Z,12.07
2022-09-21T09:16:50.253Z,12.13
2022-09-21T09:19:24.574Z,12.23
2022-09-21T09:21:57.999Z,12.35
2022-09-21T09:24:35.712Z,12.50
2022-09-21T09:27:08.700Z,12.63
2022-09-21T09:29:44.917Z,12.53
2022-09-21T09:32:17.452Z,12.66
2022-09-21T09:34:48.770Z,12.78
2022-09-21T09:37:20.750Z,12.78
2022-09-21T09:39:57.852Z,12.86
2022-09-21T09:42:35.333Z,13.04
2022-09-21T09:45:32.521Z,13.09
2022-09-21T09:48:26.613Z,13.28
2022-09-21T09:50:56.022Z,13.12
2022-09-21T09:53:29.109Z,13.22
2022-09-21T09:56:00.321Z,13.44
2022-09-21T09:58:38.084Z,13.56
2022-09-21T10:01:08.047Z,13.36
2022-09-21T10:03:38.449Z,13.27
2022-09-21T10:06:08.181Z,13.51
2022-09-21T10:08:48.678Z,13.74
2022-09-21T10:11:19.009Z,13.88
2022-09-21T10:13:49.196Z,13.98
2022-09-21T10:16:22.877Z,13.96
2022-09-21T10:18:56.310Z,14.07
2022-09-21T10:21:27.362Z,13.77
2022-09-21T10:24:01.831Z,13.79
2022-09-21T10:26:34.969Z,13.96
2022-09-21T10:29:06.078Z,14.10
2022-09-21T10:31:36.773Z,14.29
2022-09-21T10:34:16.009Z,14.43
2022-09-21T10:36:52.327Z,14.57
2022-09-21T10:39:27.779Z,14.63
2022-09-21T10:42:00.570Z,14.63
2022-09-21T10:44:32.302Z,14.74
2022-09-21T10:47:06.772Z,14.80
2022-09-21T10:49:36.727Z,15.02
2022-09-21T10:52:06.182Z,15.14
2022-09-21T10:54:38.290Z,15.22
2022-09-21T10:57:11.189Z,15.30
2022-09-21T10:59:40.575Z,15.30
2022-09-21T11:02:38.598Z,15.40
2022-09-21T11:05:14.572Z,15.47
2022-09-21T11:07:48.630Z,15.61
2022-09-21T11:10:24.622Z,15.07
2022-09-21T11:13:05.937Z,15.12
2022-09-21T11:15:47.056Z,15.36
2022-09-21T11:18:21.412Z,15.43
2022-09-21T11:20:54.040Z,15.32
2022-09-21T11:23:33.507Z,15.53
2022-09-21T11:26:12.782Z,15.78
2022-09-21T11:28:46.363Z,15.87
2022-09-21T11:31:32.716Z,15.76
2022-09-21T11:34:14.149Z,15.91
2022-09-21T11:36:52.166Z,15.85
2022-09-21T11:39:31.125Z,15.91
2022-09-21T11:42:12.017Z,15.92
2022-09-21T11:44:49.263Z,15.78
2022-09-21T11:47:39.113Z,15.89
2022-09-21T11:50:32.385Z,15.97
2022-09-21T11:53:14.389Z,15.96
2022-09-21T11:56:10.120Z,15.98
2022-09-21T11:58:47.090Z,16.19
2022-09-21T12:01:38.371Z,16.31
2022-09-21T12:04:24.108Z,15.99
2022-09-21T12:07:04.742Z,16.27
2022-09-21T12:10:07.452Z,16.48
2022-09-21T12:12:44.200Z,16.43
2022-09-21T12:15:22.361Z,16.41
2022-09-21T12:17:59.281Z,16.65
2022-09-21T12:20:35.348Z,17.10
2022-09-21T12:23:07.234Z,17.57
2022-09-21T12:25:40.899Z,17.88
2022-09-21T12:28:15.189Z,18.25
2022-09-21T12:30:51.105Z,18.71
2022-09-21T12:33:25.508Z,18.41
2022-09-21T12:36:00.542Z,18.29
2022-09-21T12:41:27.580Z,17.58
2022-09-21T12:44:00.060Z,18.36
2022-09-21T12:46:34.105Z,19.03
2022-09-21T12:49:04.858Z,19.13
2022-09-21T12:51:37.041Z,19.28
2022-09-21T12:54:11.913Z,19.68
2022-09-21T12:56:46.659Z,18.69
2022-09-21T12:59:28.892Z,18.96
2022-09-21T13:02:12.390Z,19.19
2022-09-21T13:04:53.425Z,19.68
2022-09-21T13:07:41.525Z,18.66
2022-09-21T13:10:18.684Z,19.44
2022-09-21T13:12:49.329Z,19.56
2022-09-21T13:15:27.206Z,19.71
2022-09-21T13:18:04.327Z,18.90
2022-09-21T13:20:39.449Z,18.75
2022-09-21T13:23:14.058Z,19.51
2022-09-21T13:25:43.508Z,19.62
2022-09-21T13:28:24.033Z,20.39
2022-09-21T13:31:47.433Z,20.66
2022-09-21T13:34:36.721Z,20.86
2022-09-21T13:37:30.868Z,20.51
2022-09-21T13:40:30.476Z,20.67
2022-09-21T13:43:23.176Z,20.54
2022-09-21T13:45:59.880Z,21.22
2022-09-21T13:48:30.318Z,20.99
2022-09-21T13:51:04.247Z,20.87
2022-09-21T13:53:39.999Z,21.24
2022-09-21T13:56:12.012Z,20.46
2022-09-21T13:58:45.985Z,20.35
2022-09-21T14:01:45.249Z,19.94
2022-09-21T14:04:21.288Z,19.26
2022-09-21T14:06:54.242Z,18.97
2022-09-21T14:09:27.616Z,19.14
2022-09-21T14:11:59.765Z,18.96
2022-09-21T14:14:33.633Z,19.07
2022-09-21T14:17:03.720Z,18.98
2022-09-21T14:20:07.304Z,18.90
2022-09-21T14:22:44.043Z,18.91
2022-09-21T14:25:33.384Z,18.88
2022-09-21T14:28:07.610Z,18.88
2022-09-21T14:30:38.024Z,18.58
2022-09-21T14:33:26.210Z,18.38
2022-09-21T14:35:55.871Z,18.38
2022-09-21T14:38:29.958Z,18.07
2022-09-21T14:41:07.340Z,18.03
2022-09-21T14:43:39.687Z,18.21
2022-09-21T14:46:21.941Z,17.81
2022-09-21T14:49:00.413Z,17.79
2022-09-21T14:51:36.528Z,17.68
2022-09-21T14:54:35.674Z,17.59
2022-09-21T14:57:18.501Z,17.39
2022-09-21T14:59:58.934Z,17.50
2022-09-21T15:02:30.078Z,17.51
2022-09-21T15:05:07.396Z,17.44
2022-09-21T15:07:55.006Z,17.30
2022-09-21T15:10:43.455Z,17.24
2022-09-21T15:13:27.361Z,17.09
2022-09-21T15:16:12.780Z,17.07
2022-09-21T15:18:44.170Z,16.94
2022-09-21T15:21:24.263Z,16.97
2022-09-21T15:23:54.243Z,16.93
2022-09-21T15:26:29.364Z,17.11
2022-09-21T15:29:15.463Z,16.83
2022-09-21T15:31:45.611Z,16.82
2022-09-21T15:34:16.098Z,16.58
2022-09-21T15:36:50.854Z,16.57
2022-09-21T15:39:29.401Z,16.35
2022-09-21T15:42:23.056Z,16.31
2022-09-21T15:44:53.148Z,16.30
2022-09-21T15:47:28.648Z,16.24
2022-09-21T15:49:59.063Z,16.09
2022-09-21T15:52:33.009Z,16.16
2022-09-21T15:55:04.185Z,16.13
2022-09-21T15:57:40.513Z,16.03
2022-09-21T16:00:21.439Z,16.02
2022-09-21T16:03:19.332Z,15.98
2022-09-21T16:05:50.663Z,15.92
2022-09-21T16:08:31.689Z,15.86
2022-09-21T16:11:15.703Z,15.78
2022-09-21T16:14:01.170Z,15.82
2022-09-21T16:16:30.755Z,15.74
2022-09-21T16:19:02.208Z,15.70
2022-09-21T16:21:33.652Z,15.71
2022-09-21T16:24:13.169Z,15.67
2022-09-21T16:26:43.963Z,15.60
2022-09-21T16:29:25.487Z,15.59
2022-09-21T16:32:24.055Z,15.44
2022-09-21T16:34:55.452Z,15.39
2022-09-21T16:37:28.102Z,15.35
2022-09-21T16:39:59.669Z,15.23
2022-09-21T16:42:33.179Z,15.25
2022-09-21T16:45:19.849Z,15.20
2022-09-21T16:47:49.250Z,15.08
2022-09-21T16:50:19.182Z,15.08
2022-09-21T16:52:52.127Z,14.97
2022-09-21T16:55:25.547Z,14.92
2022-09-21T16:57:56.282Z,14.76
2022-09-21T17:00:32.424Z,14.49
2022-09-21T17:03:02.329Z,14.53
2022-09-21T17:05:31.730Z,14.50
2022-09-21T17:08:02.525Z,14.36
2022-09-21T17:10:34.650Z,14.27
2022-09-21T17:13:04.492Z,14.24
2022-09-21T17:15:36.977Z,14.23
2022-09-21T17:18:07.108Z,14.13
2022-09-21T17:20:38.248Z,14.10
2022-09-21T17:23:08.134Z,14.08
2022-09-21T17:25:38.263Z,14.07
2022-09-21T17:28:23.425Z,14.03
2022-09-21T17:30:55.606Z,13.96
2022-09-21T17:33:26.117Z,13.86
2022-09-21T17:35:56.559Z,13.82
2022-09-21T17:38:26.101Z,13.71
2022-09-21T17:40:55.986Z,13.64
2022-09-21T17:43:41.129Z,13.34
2022-09-21T17:46:19.089Z,13.24
2022-09-21T17:48:49.242Z,13.18
2022-09-21T17:51:39.281Z,13.19
2022-09-21T17:54:07.173Z,13.26
2022-09-21T17:56:43.293Z,13.25
2022-09-21T17:59:26.272Z,13.24
2022-09-21T18:02:00.189Z,13.23
2022-09-21T18:04:35.044Z,13.16
2022-09-21T18:07:05.113Z,13.15
2022-09-21T18:09:35.082Z,13.17
2022-09-21T18:12:28.364Z,13.09
2022-09-21T18:15:02.837Z,12.95
2022-09-21T18:17:45.421Z,12.92
2022-09-21T18:20:22.118Z,12.88
2022-09-21T18:22:58.350Z,12.82
2022-09-21T18:25:31.596Z,12.71
2022-09-21T18:28:04.645Z,12.60
2022-09-21T18:30:39.317Z,12.45
2022-09-21T18:33:20.928Z,12.43
2022-09-21T18:35:59.130Z,12.30
2022-09-21T18:38:34.476Z,12.29
2022-09-21T18:41:15.024Z,12.11
2022-09-21T18:43:54.642Z,12.01
2022-09-21T18:46:31.578Z,12.14
2022-09-21T18:49:06.317Z,12.12
2022-09-21T18:51:40.982Z,12.07
2022-09-21T18:54:21.479Z,12.12
2022-09-21T18:56:51.290Z,11.99
2022-09-21T18:59:21.382Z,11.84
2022-09-21T19:01:52.586Z,11.73
2022-09-21T19:04:25.304Z,11.61
2022-09-21T19:06:59.773Z,11.58
2022-09-21T19:09:38.988Z,11.51
2022-09-21T19:12:23.697Z,11.42
2022-09-21T19:15:00.123Z,11.45
2022-09-21T19:17:44.130Z,11.36
2022-09-21T19:20:37.600Z,11.31
2022-09-21T19:23:14.448Z,11.28
2022-09-21T19:25:49.762Z,11.24
2022-09-21T19:28:37.258Z,11.18
2022-09-21T19:31:12.593Z,11.09
2022-09-21T19:33:50.332Z,10.98
2022-09-21T19:36:23.669Z,10.86
2022-09-21T19:38:53.609Z,10.78
2022-09-21T19:41:42.938Z,10.75
2022-09-21T19:44:23.081Z,10.63
2022-09-21T19:47:01.338Z,10.58
2022-09-21T19:49:38.881Z,10.58
2022-09-21T19:52:14.285Z,10.47
2022-09-21T19:54:56.778Z,10.43
2022-09-21T19:57:39.341Z,10.37
2022-09-21T20:00:13.412Z,10.30
2022-09-21T20:02:48.843Z,10.24
2022-09-21T20:05:23.249Z,10.35
2022-09-21T20:07:58.992Z,10.35
2022-09-21T20:10:37.326Z,10.46
2022-09-21T20:13:16.805Z,10.49
2022-09-21T20:15:49.360Z,10.42
2022-09-21T20:18:23.366Z,10.33
2022-09-21T20:20:53.068Z,10.23
2022-09-21T20:23:25.665Z,10.12
2022-09-21T20:25:57.482Z,10.04
2022-09-21T20:28:27.650Z,9.96
2022-09-21T20:30:57.264Z,9.89
2022-09-21T20:33:27.927Z,9.90
2022-09-21T20:35:57.817Z,10.08
2022-09-21T20:38:29.796Z,10.07
2022-09-21T20:41:00.225Z,10.06
2022-09-21T20:43:32.618Z,9.95
2022-09-21T20:46:03.605Z,10.02
2022-09-21T20:48:33.128Z,9.94
2022-09-21T20:51:04.501Z,9.90
2022-09-21T20:53:36.625Z,9.94
2022-09-21T20:56:06.301Z,9.96
2022-09-21T20:58:36.361Z,10.04
2022-09-21T21:01:06.323Z,9.97
2022-09-21T21:03:36.137Z,9.92
2022-09-21T21:06:13.092Z,9.80
2022-09-21T21:08:45.077Z,9.73
2022-09-21T21:11:14.628Z,9.71
2022-09-21T21:13:44.325Z,9.85
2022-09-21T21:16:13.716Z,9.88
2022-09-21T21:18:43.153Z,9.86
2022-09-21T21:21:12.694Z,9.73
2022-09-21T21:23:57.231Z,9.69
2022-09-21T21:26:50.251Z,9.71
2022-09-21T21:29:16.251Z,9.81
2022-09-21T21:31:45.672Z,10.23
2022-09-21T21:34:15.120Z,10.65
2022-09-21T21:36:45.498Z,10.30
2022-09-21T21:39:17.562Z,10.28
2022-09-21T21:41:47.120Z,10.45
2022-09-21T21:44:16.502Z,10.48
2022-09-21T21:46:45.991Z,10.58
2022-09-21T21:49:15.690Z,10.63
2022-09-21T21:51:45.090Z,10.75
2022-09-21T21:54:18.298Z,10.93
2022-09-21T21:56:47.989Z,10.98
2022-09-21T21:59:18.104Z,11.01
2022-09-21T22:01:47.776Z,10.53
2022-09-21T22:04:17.234Z,10.30
2022-09-21T22:06:46.604Z,10.13
2022-09-21T22:09:22.156Z,9.85
2022-09-21T22:11:51.791Z,9.79
2022-09-21T22:14:21.342Z,9.75
2022-09-21T22:16:51.376Z,9.67
2022-09-21T22:19:20.908Z,9.54
2022-09-21T22:21:54.025Z,9.60
2022-09-21T22:24:26.705Z,9.36
2022-09-21T22:26:56.091Z,8.97
2022-09-21T22:29:25.486Z,8.83
2022-09-21T22:31:55.612Z,8.74
2022-09-21T22:34:25.064Z,8.86
2022-09-21T22:36:56.326Z,9.13
2022-09-21T22:39:28.364Z,9.28
2022-09-21T22:41:57.757Z,9.07
2022-09-21T22:44:27.333Z,8.93
2022-09-21T22:46:56.839Z,8.77
2022-09-21T22:49:26.349Z,8.84
2022-09-21T22:51:55.735Z,8.83
2022-09-21T22:54:27.755Z,8.79
2022-09-21T22:56:57.129Z,8.70
2022-09-21T22:59:26.678Z,8.76
2022-09-21T23:01:56.465Z,8.85
2022-09-21T23:04:26.441Z,8.73
2022-09-21T23:06:55.865Z,8.87
2022-09-21T23:09:27.902Z,8.90
2022-09-21T23:11:57.409Z,8.62
2022-09-21T23:14:26.880Z,8.46
2022-09-21T23:16:56.300Z,8.32
2022-09-21T23:19:25.685Z,8.66
2022-09-21T23:21:55.089Z,8.76
2022-09-21T23:24:24.623Z,8.60
2022-09-21T23:26:56.798Z,8.38
2022-09-21T23:29:26.173Z,8.42
2022-09-21T23:31:55.596Z,8.73
2022-09-21T23:34:25.008Z,8.85
2022-09-21T23:36:54.415Z,8.78
2022-09-21T23:39:24.088Z,8.88
2022-09-21T23:41:56.121Z,8.80
2022-09-21T23:44:25.561Z,8.94
2022-09-21T23:46:54.953Z,8.69
2022-09-21T23:49:24.378Z,8.66
2022-09-21T23:51:53.734Z,8.63
2022-09-21T23:54:23.120Z,8.46
2022-09-21T23:56:52.503Z,8.35
2022-09-21T23:59:24.481Z,7.87
